createdAt,value
2022-11-07T00:01:40.836Z,1.45
2022-11-07T00:06:43.467Z,1.67
2022-11-07T00:11:46.425Z,1.58
2022-11-07T00:16:49.496Z,1.73
2022-11-07T00:21:51.849Z,1.80
2022-11-07T00:26:54.479Z,2.13
2022-11-07T00:31:56.928Z,2.20
2022-11-07T00:36:59.233Z,2.45
2022-11-07T00:42:01.596Z,1.77
2022-11-07T00:47:03.943Z,2.22
2022-11-07T00:52:06.113Z,2.03
2022-11-07T00:57:08.313Z,2.47
2022-11-07T01:02:10.589Z,2.33
2022-11-07T01:07:13.051Z,2.20
2022-11-07T01:12:15.331Z,2.25
2022-11-07T01:17:17.685Z,1.90
2022-11-07T01:22:19.921Z,2.10
2022-11-07T01:27:22.108Z,2.13
2022-11-07T01:32:24.363Z,1.77
2022-11-07T01:37:26.569Z,1.70
2022-11-07T01:42:28.748Z,1.30
2022-11-07T01:47:36.396Z,1.95
2022-11-07T01:52:42.379Z,1.92
2022-11-07T01:57:58.301Z,2.13
2022-11-07T02:03:06.106Z,1.90
2022-11-07T02:08:09.807Z,1.88
2022-11-07T02:13:20.661Z,1.70
2022-11-07T02:18:23.619Z,1.83
2022-11-07T02:23:35.038Z,1.70
2022-11-07T02:28:39.133Z,1.50
2022-11-07T02:33:42.288Z,1.90
2022-11-07T02:38:47.086Z,1.90
2022-11-07T02:43:53.701Z,1.65
2022-11-07T02:48:58.678Z,1.23
2022-11-07T02:54:01.050Z,1.70
2022-11-07T02:59:03.563Z,1.45
2022-11-07T03:04:05.760Z,1.70
2022-11-07T03:09:08.616Z,2.15
2022-11-07T03:14:10.804Z,1.70
2022-11-07T03:19:12.949Z,2.20
2022-11-07T03:24:15.302Z,1.75
2022-11-07T03:29:17.607Z,2.25
2022-11-07T03:34:19.797Z,2.10
2022-11-07T03:39:25.845Z,2.03
2022-11-07T03:44:28.319Z,1.92
2022-11-07T03:49:30.656Z,1.80
2022-11-07T03:54:32.968Z,2.30
2022-11-07T03:59:35.187Z,2.30
2022-11-07T04:04:37.394Z,2.30
2022-11-07T04:09:39.585Z,2.20
2022-11-07T04:15:00.260Z,2.45
2022-11-07T04:20:02.531Z,2.30
2022-11-07T04:25:05.682Z,2.15
2022-11-07T04:30:20.444Z,2.20
2022-11-07T04:35:28.185Z,1.80
2022-11-07T04:40:31.011Z,2.00
2022-11-07T04:45:33.302Z,2.40
2022-11-07T04:50:35.501Z,3.08
2022-11-07T04:55:37.651Z,2.08
2022-11-07T05:00:39.890Z,2.67
2022-11-07T05:05:42.110Z,2.55
2022-11-07T05:10:44.398Z,2.30
2022-11-07T05:15:46.702Z,2.35
2022-11-07T05:20:48.917Z,2.17
2022-11-07T05:25:55.201Z,2.20
2022-11-07T05:31:02.609Z,2.30
2022-11-07T05:36:14.053Z,2.72
2022-11-07T05:41:18.180Z,4.45
2022-11-07T05:46:20.447Z,4.07
2022-11-07T05:51:22.785Z,4.15
2022-11-07T05:56:25.122Z,3.72
2022-11-07T06:01:27.395Z,4.93
2022-11-07T06:06:29.761Z,6.25
2022-11-07T06:11:33.440Z,4.88
2022-11-07T06:16:35.765Z,4.00
2022-11-07T06:21:38.024Z,2.70
2022-11-07T06:26:40.502Z,3.22
2022-11-07T06:31:42.999Z,3.35
2022-11-07T06:36:50.694Z,2.65
2022-11-07T06:41:58.804Z,4.22
2022-11-07T06:47:01.015Z,5.82
2022-11-07T06:52:03.285Z,2.75
2022-11-07T06:57:05.690Z,7.88
2022-11-07T07:02:21.724Z,2.30
2022-11-07T07:07:35.029Z,2.90
2022-11-07T07:12:37.410Z,3.25
2022-11-07T07:17:39.875Z,2.65
2022-11-07T07:22:42.268Z,3.20
2022-11-07T07:27:45.042Z,2.70
2022-11-07T07:32:47.264Z,22.92
2022-11-07T07:37:52.983Z,4.55
2022-11-07T07:42:55.159Z,2.70
2022-11-07T07:48:03.600Z,3.53
2022-11-07T07:53:09.041Z,3.50
2022-11-07T07:58:12.583Z,3.00
2022-11-07T08:03:15.397Z,2.13
2022-11-07T08:08:17.853Z,2.67
2022-11-07T08:13:22.384Z,2.20
2022-11-07T08:18:25.350Z,2.25
2022-11-07T08:23:27.544Z,1.85
2022-11-07T08:28:32.153Z,2.58
2022-11-07T08:33:35.247Z,2.30
2022-11-07T08:38:37.728Z,2.33
2022-11-07T08:43:39.915Z,2.30
2022-11-07T08:48:42.452Z,2.40
2022-11-07T08:53:44.672Z,1.98
2022-11-07T08:58:46.993Z,3.00
2022-11-07T09:03:55.108Z,4.97
2022-11-07T09:09:00.631Z,3.75
2022-11-07T09:14:02.916Z,2.95
2022-11-07T09:19:05.187Z,3.47
2022-11-07T09:24:08.628Z,3.75
2022-11-07T09:29:10.835Z,3.00
2022-11-07T09:34:13.200Z,3.65
2022-11-07T09:39:15.391Z,3.35
2022-11-07T09:44:20.336Z,3.67
2022-11-07T09:49:46.824Z,3.88
2022-11-07T09:55:07.727Z,4.00
2022-11-07T10:00:19.375Z,3.55
2022-11-07T10:05:42.748Z,3.47
2022-11-07T10:11:01.542Z,3.70
2022-11-07T10:16:19.221Z,3.87
2022-11-07T10:21:53.312Z,4.57
2022-11-07T10:26:58.718Z,5.32
2022-11-07T10:32:08.380Z,3.92
2022-11-07T10:37:10.881Z,4.03
2022-11-07T10:42:26.968Z,4.68
2022-11-07T10:47:29.271Z,4.78
2022-11-07T10:52:31.480Z,4.30
2022-11-07T10:57:35.758Z,3.45
2022-11-07T11:02:50.082Z,4.55
2022-11-07T11:07:54.914Z,4.13
2022-11-07T11:12:57.333Z,4.38
2022-11-07T11:18:03.403Z,4.97
2022-11-07T11:23:19.308Z,5.30
2022-11-07T11:28:33.580Z,4.90
2022-11-07T11:33:43.424Z,5.10
2022-11-07T11:38:56.204Z,4.28
2022-11-07T11:44:04.553Z,5.00
2022-11-07T11:49:12.480Z,5.33
2022-11-07T11:54:16.583Z,5.00
2022-11-07T11:59:37.036Z,5.38
2022-11-07T12:05:02.228Z,5.40
2022-11-07T12:10:13.640Z,5.32
2022-11-07T12:15:24.980Z,5.72
2022-11-07T12:20:33.066Z,5.35
2022-11-07T12:25:53.022Z,5.93
2022-11-07T12:31:10.277Z,4.57
2022-11-07T12:36:43.901Z,6.53
2022-11-07T12:42:30.754Z,4.88
2022-11-07T12:48:15.806Z,5.35
2022-11-07T12:53:20.843Z,5.55
2022-11-07T12:58:26.569Z,5.57
2022-11-07T13:03:43.226Z,5.00
2022-11-07T13:09:10.512Z,5.30
2022-11-07T13:14:41.134Z,4.93
2022-11-07T13:19:45.886Z,4.68
2022-11-07T13:25:11.857Z,4.53
2022-11-07T13:30:17.586Z,5.20
2022-11-07T13:35:31.347Z,4.75
2022-11-07T13:40:49.158Z,4.55
2022-11-07T13:45:56.249Z,4.90
2022-11-07T13:51:17.764Z,4.78
2022-11-07T13:56:33.223Z,4.65
2022-11-07T14:01:45.951Z,4.60
2022-11-07T14:06:50.685Z,4.28
2022-11-07T14:11:53.960Z,5.07
2022-11-07T14:17:00.644Z,4.65
2022-11-07T14:22:03.040Z,4.53
2022-11-07T14:27:09.124Z,4.43
2022-11-07T14:32:17.754Z,4.53
2022-11-07T14:37:25.730Z,4.65
2022-11-07T14:42:29.572Z,4.88
2022-11-07T14:47:35.071Z,5.05
2022-11-07T14:52:52.511Z,5.45
2022-11-07T14:57:55.308Z,5.57
2022-11-07T15:02:59.080Z,5.63
2022-11-07T15:08:01.519Z,6.20
2022-11-07T15:13:25.686Z,6.95
2022-11-07T15:18:29.601Z,7.68
2022-11-07T15:23:36.408Z,8.10
2022-11-07T15:28:54.754Z,8.20
2022-11-07T15:33:59.383Z,8.50
2022-11-07T15:39:01.767Z,10.27
2022-11-07T15:44:04.132Z,9.52
2022-11-07T15:49:11.983Z,11.38
2022-11-07T15:54:15.217Z,12.30
2022-11-07T15:59:21.142Z,12.20
2022-11-07T16:04:23.469Z,13.35
2022-11-07T16:09:31.947Z,13.93
2022-11-07T16:14:43.919Z,13.80
2022-11-07T16:19:47.421Z,12.95
2022-11-07T16:24:49.672Z,13.40
2022-11-07T16:29:51.904Z,14.80
2022-11-07T16:34:54.269Z,13.45
2022-11-07T16:39:56.585Z,14.02
2022-11-07T16:44:59.772Z,14.85
2022-11-07T16:50:02.089Z,14.70
2022-11-07T16:55:04.718Z,14.90
2022-11-07T17:00:07.706Z,14.35
2022-11-07T17:05:10.168Z,17.30
2022-11-07T17:10:17.964Z,16.15
2022-11-07T17:15:20.327Z,17.42
2022-11-07T17:20:49.012Z,17.77
2022-11-07T17:25:54.243Z,17.38
2022-11-07T17:30:56.579Z,16.70
2022-11-07T17:35:58.870Z,18.48
2022-11-07T17:41:17.627Z,19.67
2022-11-07T17:46:28.280Z,21.70
2022-11-07T17:51:31.110Z,19.95
2022-11-07T17:56:34.828Z,17.90
2022-11-07T18:01:38.928Z,18.45
2022-11-07T18:06:43.474Z,17.98
2022-11-07T18:11:45.908Z,19.52
2022-11-07T18:16:48.126Z,19.40
2022-11-07T18:21:50.665Z,18.98
2022-11-07T18:26:53.710Z,20.23
2022-11-07T18:31:56.112Z,18.20
2022-11-07T18:36:58.328Z,17.23
2022-11-07T18:42:00.522Z,18.33
2022-11-07T18:47:02.825Z,19.70
2022-11-07T18:52:05.453Z,21.35
2022-11-07T18:57:07.796Z,21.98
2022-11-07T19:02:10.723Z,21.10
2022-11-07T19:07:13.159Z,22.52
2022-11-07T19:12:15.484Z,21.30
2022-11-07T19:17:17.749Z,20.92
2022-11-07T19:22:19.991Z,22.00
2022-11-07T19:27:22.353Z,19.42
2022-11-07T19:32:24.586Z,20.20
2022-11-07T19:37:26.785Z,23.42
2022-11-07T19:42:29.188Z,25.83
2022-11-07T19:47:31.449Z,24.02
2022-11-07T19:52:34.135Z,25.85
2022-11-07T19:57:36.361Z,25.38
2022-11-07T20:02:44.158Z,25.30
2022-11-07T20:07:48.012Z,28.20
2022-11-07T20:12:54.619Z,26.08
2022-11-07T20:17:56.870Z,24.52
2022-11-07T20:23:00.839Z,21.20
2022-11-07T20:28:03.037Z,23.05
2022-11-07T20:33:05.855Z,25.23
2022-11-07T20:38:08.213Z,27.75
2022-11-07T20:43:12.127Z,29.15
2022-11-07T20:48:15.224Z,27.00
2022-11-07T20:53:17.921Z,26.65
2022-11-07T20:58:20.345Z,22.98
2022-11-07T21:03:22.596Z,21.17
2022-11-07T21:08:25.102Z,21.08
2022-11-07T21:13:27.316Z,22.38
2022-11-07T21:18:30.487Z,23.90
2022-11-07T21:23:33.447Z,25.83
2022-11-07T21:28:37.328Z,25.65
2022-11-07T21:33:39.840Z,28.20
2022-11-07T21:38:42.238Z,27.67
2022-11-07T21:43:44.930Z,27.55
2022-11-07T21:48:47.834Z,28.35
2022-11-07T21:53:50.962Z,26.65
2022-11-07T21:58:59.246Z,30.70
2022-11-07T22:04:13.357Z,29.65
2022-11-07T22:09:18.181Z,28.73
2022-11-07T22:14:22.693Z,28.77
2022-11-07T22:19:26.220Z,27.30
2022-11-07T22:24:56.247Z,30.30
2022-11-07T22:29:58.788Z,28.52
2022-11-07T22:35:08.900Z,29.73
2022-11-07T22:40:16.555Z,29.10
2022-11-07T22:45:22.473Z,29.50
2022-11-07T22:50:25.524Z,29.95
2022-11-07T22:55:28.805Z,29.13
2022-11-07T23:00:32.544Z,28.05
2022-11-07T23:05:35.512Z,30.00
2022-11-07T23:10:37.842Z,28.92
2022-11-07T23:15:40.089Z,30.05
2022-11-07T23:21:00.917Z,30.20
2022-11-07T23:26:04.879Z,30.75
2022-11-07T23:31:07.970Z,27.45
2022-11-07T23:36:15.412Z,29.45
2022-11-07T23:41:17.732Z,25.33
2022-11-07T23:46:38.493Z,24.95
2022-11-07T23:51:40.957Z,25.45
2022-11-07T23:56:44.090Z,26.38
